Time;durP1;ratioP1;P1;durP2;ratioP2;P2;SDS_P1;SDS_P2;PMS_P1;PMS_P2;Temp;Humidity;BMP_temperature;BMP_pressure;BME280_temperature;BME280_humidity;BME280_pressure;Samples;Min_cycle;Max_cycle;Signal;HPM_P1;HPM_P2
2023/10/26 00:00:42;;;;;;;;;;;19.60;1.00;;;;;;4976964;28;19933;-58
2023/10/26 00:03:08;;;;;;;;;;;19.60;1.00;;;;;;4976805;28;19930;-59
2023/10/26 00:05:35;;;;;;;;;;;19.60;1.00;;;;;;4976851;28;19938;-58
2023/10/26 00:08:03;;;;;;;;;;;19.60;1.00;;;;;;4976939;28;19926;-59
2023/10/26 00:10:30;;;;;;;;;;;19.60;1.00;;;;;;4976550;28;20388;-57
2023/10/26 00:12:56;;;;;;;;;;;19.50;1.00;;;;;;4976465;28;20013;-58
2023/10/26 00:15:23;;;;;;;;;;;19.50;1.00;;;;;;4976840;28;19930;-58
2023/10/26 00:17:50;;;;;;;;;;;19.50;1.00;;;;;;4976695;28;19957;-58
2023/10/26 00:20:17;;;;;;;;;;;19.50;1.00;;;;;;4976632;28;19937;-59
2023/10/26 00:22:43;;;;;;;;;;;19.50;1.00;;;;;;4976795;28;20382;-57
2023/10/26 00:25:10;;;;;;;;;;;19.50;1.00;;;;;;4976348;28;19980;-59
2023/10/26 00:27:40;;;;;;;;;;;19.50;1.00;;;;;;4976656;28;20269;-58
2023/10/26 00:30:09;;;;;;;;;;;19.50;1.00;;;;;;4976531;28;19926;-58
2023/10/26 00:32:36;;;;;;;;;;;19.50;1.00;;;;;;4976368;28;19942;-57
2023/10/26 00:35:03;;;;;;;;;;;19.40;1.00;;;;;;4958656;28;19930;-59
2023/10/26 00:37:30;;;;;;;;;;;19.40;1.00;;;;;;4958990;28;19926;-59
2023/10/26 00:39:57;;;;;;;;;;;19.40;1.00;;;;;;4976255;28;19927;-57
2023/10/26 00:42:24;;;;;;;;;;;19.40;1.00;;;;;;4958767;28;19994;-59
2023/10/26 00:44:51;;;;;;;;;;;19.40;1.00;;;;;;4958566;28;19976;-58
2023/10/26 00:47:18;;;;;;;;;;;19.40;1.00;;;;;;4976180;28;19933;-59
2023/10/26 00:49:44;;;;;;;;;;;19.30;1.00;;;;;;4958430;28;19926;-59
2023/10/26 00:52:11;;;;;;;;;;;19.30;1.00;;;;;;4958139;28;19930;-57
2023/10/26 00:54:40;;;;;;;;;;;19.30;1.00;;;;;;4975803;28;19933;-59
2023/10/26 00:57:07;;;;;;;;;;;19.30;1.00;;;;;;4958450;28;20388;-58
2023/10/26 00:59:34;;;;;;;;;;;19.30;1.00;;;;;;4958280;28;19976;-58
2023/10/26 01:02:02;;;;;;;;;;;19.30;1.00;;;;;;4958506;28;19927;-58
2023/10/26 01:04:29;;;;;;;;;;;19.30;1.00;;;;;;4958264;28;19969;-59
2023/10/26 01:06:56;;;;;;;;;;;19.20;1.00;;;;;;4958730;28;20284;-58
2023/10/26 01:09:24;;;;;;;;;;;19.20;1.00;;;;;;4967908;28;20291;-58
2023/10/26 01:11:51;;;;;;;;;;;19.20;1.00;;;;;;4958260;28;20023;-56
2023/10/26 01:14:18;;;;;;;;;;;19.20;1.00;;;;;;4975295;28;19935;-59
2023/10/26 01:16:45;;;;;;;;;;;19.20;1.00;;;;;;4958251;28;20351;-59
2023/10/26 01:19:12;;;;;;;;;;;19.20;1.00;;;;;;4975460;28;19926;-58
2023/10/26 01:21:52;;;;;;;;;;;19.20;1.00;;;;;;4958067;28;19949;-59
2023/10/26 01:24:19;;;;;;;;;;;19.20;1.00;;;;;;4957975;28;19945;-59
2023/10/26 01:26:46;;;;;;;;;;;19.20;1.00;;;;;;4957885;28;20483;-59
2023/10/26 01:29:13;;;;;;;;;;;19.20;1.00;;;;;;4975371;28;20017;-59
2023/10/26 01:31:39;;;;;;;;;;;19.10;1.00;;;;;;4958017;28;19937;-57
2023/10/26 01:34:06;;;;;;;;;;;19.10;1.00;;;;;;4975169;28;19962;-55
2023/10/26 01:36:33;;;;;;;;;;;19.10;1.00;;;;;;4957882;28;20333;-59
2023/10/26 01:39:00;;;;;;;;;;;19.10;1.00;;;;;;4975307;28;20387;-59
2023/10/26 01:41:31;;;;;;;;;;;19.10;1.00;;;;;;4975111;28;19965;-59
2023/10/26 01:43:59;;;;;;;;;;;19.10;1.00;;;;;;4957603;28;19926;-59
2023/10/26 01:46:26;;;;;;;;;;;19.10;1.00;;;;;;4967157;28;19926;-59
2023/10/26 01:48:53;;;;;;;;;;;19.10;1.00;;;;;;4975255;28;19930;-57
2023/10/26 01:51:20;;;;;;;;;;;19.10;1.00;;;;;;4974834;28;20395;-59
2023/10/26 01:53:47;;;;;;;;;;;19.00;1.00;;;;;;4957071;28;20012;-59
2023/10/26 01:56:13;;;;;;;;;;;19.00;1.00;;;;;;4957470;28;19930;-59
2023/10/26 01:58:42;;;;;;;;;;;19.00;1.00;;;;;;4957226;28;20307;-59
2023/10/26 02:01:09;;;;;;;;;;;19.00;1.00;;;;;;4956985;28;19961;-58
2023/10/26 02:03:35;;;;;;;;;;;19.00;1.00;;;;;;4955416;28;19926;-59
2023/10/26 02:06:03;;;;;;;;;;;19.00;1.00;;;;;;4957236;28;20350;-59
2023/10/26 02:08:30;;;;;;;;;;;19.00;1.00;;;;;;4957193;28;19937;-59
2023/10/26 02:10:56;;;;;;;;;;;19.00;1.00;;;;;;4957074;28;19933;-59
2023/10/26 02:13:23;;;;;;;;;;;19.00;1.00;;;;;;4974324;28;19926;-59
2023/10/26 02:15:50;;;;;;;;;;;19.00;1.00;;;;;;4957291;28;20012;-59
2023/10/26 02:18:17;;;;;;;;;;;18.90;1.00;;;;;;4957010;28;19927;-58
2023/10/26 02:20:44;;;;;;;;;;;18.90;1.00;;;;;;4956874;28;19926;-59
2023/10/26 02:23:10;;;;;;;;;;;18.90;1.00;;;;;;4956772;28;20491;-57
2023/10/26 02:25:37;;;;;;;;;;;18.90;1.00;;;;;;4957012;28;19926;-58
2023/10/26 02:28:04;;;;;;;;;;;18.90;1.00;;;;;;4957046;28;19926;-54
2023/10/26 02:30:30;;;;;;;;;;;18.90;1.00;;;;;;4956755;28;19949;-59
2023/10/26 02:32:57;;;;;;;;;;;18.90;1.00;;;;;;4956688;28;19926;-59
2023/10/26 02:35:24;;;;;;;;;;;18.90;1.00;;;;;;4956734;28;19926;-57
2023/10/26 02:37:51;;;;;;;;;;;18.80;1.00;;;;;;4956980;28;19930;-58
2023/10/26 02:40:19;;;;;;;;;;;18.80;1.00;;;;;;4956662;28;20339;-58
2023/10/26 02:42:45;;;;;;;;;;;18.80;1.00;;;;;;4956777;28;19926;-59
2023/10/26 02:45:12;;;;;;;;;;;18.80;1.00;;;;;;4956544;28;19926;-59
2023/10/26 02:47:39;;;;;;;;;;;18.80;1.00;;;;;;4956719;28;19933;-59
2023/10/26 02:50:06;;;;;;;;;;;18.80;1.00;;;;;;4956826;28;20336;-59
2023/10/26 02:52:33;;;;;;;;;;;18.80;1.00;;;;;;4956469;28;19926;-59
2023/10/26 02:55:00;;;;;;;;;;;18.80;1.00;;;;;;4956199;28;20288;-57
2023/10/26 02:57:26;;;;;;;;;;;18.80;1.00;;;;;;4973996;28;20012;-59
2023/10/26 02:59:54;;;;;;;;;;;18.80;1.00;;;;;;4974005;28;19930;-59
2023/10/26 03:02:20;;;;;;;;;;;18.80;1.00;;;;;;4956432;28;19973;-59
2023/10/26 03:04:47;;;;;;;;;;;18.70;1.00;;;;;;4956179;28;20623;-60
2023/10/26 03:07:21;;;;;;;;;;;18.70;1.00;;;;;;4956368;28;19926;-58
2023/10/26 03:09:49;;;;;;;;;;;18.70;1.00;;;;;;4973795;28;19948;-57
2023/10/26 03:12:17;;;;;;;;;;;18.70;1.00;;;;;;4956288;28;20520;-59
2023/10/26 03:14:44;;;;;;;;;;;18.70;1.00;;;;;;4976185;28;19996;-58
2023/10/26 03:17:15;;;;;;;;;;;18.70;1.00;;;;;;4960310;28;19933;-59
2023/10/26 03:19:43;;;;;;;;;;;18.70;1.00;;;;;;4977732;28;19926;-59
2023/10/26 03:22:10;;;;;;;;;;;18.70;1.00;;;;;;4960188;28;20020;-59
2023/10/26 03:24:37;;;;;;;;;;;18.70;1.00;;;;;;4959987;28;20017;-59
2023/10/26 03:27:04;;;;;;;;;;;18.60;1.00;;;;;;4977804;28;19927;-57
2023/10/26 03:29:31;;;;;;;;;;;18.60;1.00;;;;;;4977448;28;19926;-59
2023/10/26 03:31:58;;;;;;;;;;;18.60;1.00;;;;;;4976105;28;20412;-58
2023/10/26 03:34:25;;;;;;;;;;;18.60;1.00;;;;;;4977262;28;19926;-59
2023/10/26 03:36:52;;;;;;;;;;;18.60;1.00;;;;;;4977562;28;19973;-58
2023/10/26 03:39:19;;;;;;;;;;;18.60;1.00;;;;;;4975809;28;20392;-59
2023/10/26 03:41:45;;;;;;;;;;;18.60;1.00;;;;;;4977403;28;20354;-59
2023/10/26 03:44:12;;;;;;;;;;;18.60;1.00;;;;;;4977144;28;19932;-59
2023/10/26 03:46:39;;;;;;;;;;;18.60;1.00;;;;;;4977357;28;19926;-59
2023/10/26 03:49:05;;;;;;;;;;;18.60;1.00;;;;;;4975485;28;19941;-59
2023/10/26 03:51:32;;;;;;;;;;;18.50;1.00;;;;;;4975268;28;19932;-59
2023/10/26 03:53:59;;;;;;;;;;;18.50;1.00;;;;;;4976738;28;19933;-59
2023/10/26 03:56:26;;;;;;;;;;;18.50;1.00;;;;;;4959534;28;19926;-59
2023/10/26 03:58:53;;;;;;;;;;;18.50;1.00;;;;;;4974132;28;19982;-57
2023/10/26 04:01:20;;;;;;;;;;;18.50;1.00;;;;;;4974042;28;19988;-59
2023/10/26 04:03:46;;;;;;;;;;;18.50;1.00;;;;;;4975608;28;20368;-59
2023/10/26 04:06:13;;;;;;;;;;;18.50;1.00;;;;;;4976932;28;20024;-59
2023/10/26 04:08:40;;;;;;;;;;;18.50;1.00;;;;;;4976881;28;19964;-59
2023/10/26 04:11:07;;;;;;;;;;;18.50;1.00;;;;;;4976775;28;19926;-59
2023/10/26 04:13:34;;;;;;;;;;;18.50;1.00;;;;;;4976556;28;20020;-58
2023/10/26 04:16:01;;;;;;;;;;;18.50;1.00;;;;;;4976810;28;20280;-59
2023/10/26 04:18:29;;;;;;;;;;;18.50;1.00;;;;;;4976905;28;20505;-57
2023/10/26 04:20:56;;;;;;;;;;;18.50;1.00;;;;;;4976391;28;20402;-58
2023/10/26 04:23:22;;;;;;;;;;;18.50;1.00;;;;;;4976392;28;19926;-59
2023/10/26 04:25:49;;;;;;;;;;;18.50;1.00;;;;;;4975632;28;19926;-59
2023/10/26 04:28:21;;;;;;;;;;;18.40;1.00;;;;;;4976533;28;20028;-59
2023/10/26 04:30:48;;;;;;;;;;;18.40;1.00;;;;;;4972740;28;19973;-59
2023/10/26 04:33:15;;;;;;;;;;;18.40;1.00;;;;;;4971035;28;19926;-59
2023/10/26 04:35:42;;;;;;;;;;;18.40;1.00;;;;;;4973954;28;19929;-56
2023/10/26 04:38:09;;;;;;;;;;;18.40;1.00;;;;;;4973164;28;20289;-59
2023/10/26 04:40:38;;;;;;;;;;;18.40;1.00;;;;;;4970776;28;20000;-59
2023/10/26 04:43:05;;;;;;;;;;;18.40;1.00;;;;;;4975543;28;19926;-59
2023/10/26 04:45:33;;;;;;;;;;;18.40;1.00;;;;;;4976148;28;19937;-59
2023/10/26 04:48:00;;;;;;;;;;;18.40;1.00;;;;;;4976402;28;19930;-58
2023/10/26 04:50:30;;;;;;;;;;;18.40;1.00;;;;;;4968569;28;19962;-59
2023/10/26 04:52:57;;;;;;;;;;;18.30;1.00;;;;;;4975727;28;19930;-59
2023/10/26 04:55:24;;;;;;;;;;;18.30;1.00;;;;;;4976022;28;19926;-59
2023/10/26 04:57:50;;;;;;;;;;;18.30;1.00;;;;;;4975967;28;19933;-58
2023/10/26 05:00:17;;;;;;;;;;;18.30;1.00;;;;;;4975281;28;19981;-59
2023/10/26 05:02:44;;;;;;;;;;;18.30;1.00;;;;;;4975821;28;20020;-59
2023/10/26 05:05:11;;;;;;;;;;;18.30;1.00;;;;;;4975685;28;19930;-59
2023/10/26 05:07:37;;;;;;;;;;;18.30;1.00;;;;;;4975535;28;20418;-59
2023/10/26 05:10:05;;;;;;;;;;;18.30;1.00;;;;;;4970324;28;19926;-58
2023/10/26 05:12:32;;;;;;;;;;;18.30;1.00;;;;;;4973845;28;19953;-58
2023/10/26 05:14:58;;;;;;;;;;;18.30;1.00;;;;;;4975555;28;19933;-57
2023/10/26 05:17:25;;;;;;;;;;;18.30;1.00;;;;;;4975354;28;19932;-59
2023/10/26 05:19:52;;;;;;;;;;;18.20;1.00;;;;;;4974528;28;20262;-58
2023/10/26 05:22:19;;;;;;;;;;;18.20;1.00;;;;;;4976945;28;19965;-59
2023/10/26 05:24:46;;;;;;;;;;;18.30;1.00;;;;;;4975592;28;20039;-58
2023/10/26 05:27:12;;;;;;;;;;;18.20;1.00;;;;;;4975734;28;19936;-59
2023/10/26 05:29:39;;;;;;;;;;;18.20;1.00;;;;;;4973886;28;20377;-58
2023/10/26 05:32:06;;;;;;;;;;;18.20;1.00;;;;;;4975785;28;20340;-59
2023/10/26 05:34:33;;;;;;;;;;;18.20;1.00;;;;;;4974999;28;19938;-59
2023/10/26 05:36:59;;;;;;;;;;;18.20;1.00;;;;;;4975372;28;19983;-59
2023/10/26 05:39:26;;;;;;;;;;;18.20;1.00;;;;;;4974329;28;19985;-59
2023/10/26 05:41:53;;;;;;;;;;;18.20;1.00;;;;;;4975229;28;19930;-59
2023/10/26 05:44:20;;;;;;;;;;;18.20;1.00;;;;;;4974821;28;19926;-59
2023/10/26 05:46:46;;;;;;;;;;;18.20;1.00;;;;;;4975086;28;19933;-59
2023/10/26 05:49:13;;;;;;;;;;;18.20;1.00;;;;;;4974957;28;19926;-59
2023/10/26 05:51:40;;;;;;;;;;;18.20;1.00;;;;;;4967763;28;19926;-59
2023/10/26 05:54:06;;;;;;;;;;;18.10;1.00;;;;;;4974695;28;19926;-59
2023/10/26 05:56:33;;;;;;;;;;;18.10;1.00;;;;;;4974737;28;19937;-58
2023/10/26 05:59:00;;;;;;;;;;;18.10;1.00;;;;;;4974879;28;19926;-59
2023/10/26 06:01:27;;;;;;;;;;;18.10;1.00;;;;;;4967268;28;19976;-59
2023/10/26 06:03:53;;;;;;;;;;;18.10;1.00;;;;;;4974593;28;19930;-57
2023/10/26 06:06:20;;;;;;;;;;;18.10;1.00;;;;;;4974778;28;19933;-59
2023/10/26 06:08:47;;;;;;;;;;;18.10;1.00;;;;;;4974600;28;19934;-59
2023/10/26 06:11:15;;;;;;;;;;;18.10;1.00;;;;;;4972756;28;19926;-59
2023/10/26 06:13:41;;;;;;;;;;;18.00;1.00;;;;;;4974500;28;20316;-58
2023/10/26 06:16:12;;;;;;;;;;;18.10;1.00;;;;;;4973891;28;20446;-59
2023/10/26 06:18:39;;;;;;;;;;;18.00;1.00;;;;;;4974429;28;19926;-59
2023/10/26 06:21:07;;;;;;;;;;;18.00;1.00;;;;;;4973746;28;20281;-59
2023/10/26 06:23:34;;;;;;;;;;;18.10;1.00;;;;;;4973924;28;20016;-59
2023/10/26 06:26:01;;;;;;;;;;;18.00;1.00;;;;;;4974278;28;20026;-59
2023/10/26 06:28:28;;;;;;;;;;;18.10;1.00;;;;;;4974138;28;19926;-59
2023/10/26 06:30:55;;;;;;;;;;;18.00;1.00;;;;;;4971287;28;19942;-59
2023/10/26 06:33:23;;;;;;;;;;;18.00;1.00;;;;;;4973949;28;19926;-59
2023/10/26 06:35:49;;;;;;;;;;;18.00;1.00;;;;;;4974312;28;19926;-59
2023/10/26 06:38:16;;;;;;;;;;;18.00;1.00;;;;;;4974234;28;19926;-58
2023/10/26 06:40:44;;;;;;;;;;;18.00;1.00;;;;;;4972566;28;19952;-59
2023/10/26 06:43:11;;;;;;;;;;;18.00;1.00;;;;;;4973959;28;19933;-59
2023/10/26 06:45:38;;;;;;;;;;;18.00;1.00;;;;;;4973903;28;20349;-58
2023/10/26 06:48:05;;;;;;;;;;;18.00;1.00;;;;;;4973989;28;19949;-59
2023/10/26 06:50:32;;;;;;;;;;;17.90;1.00;;;;;;4973745;28;19969;-58
2023/10/26 06:52:59;;;;;;;;;;;17.90;1.00;;;;;;4973706;28;19926;-59
2023/10/26 06:55:29;;;;;;;;;;;17.90;1.00;;;;;;4973804;28;20410;-59
2023/10/26 06:57:57;;;;;;;;;;;17.90;1.00;;;;;;4973944;28;19926;-58
2023/10/26 07:00:23;;;;;;;;;;;17.90;1.00;;;;;;4973850;28;19997;-57
2023/10/26 07:02:50;;;;;;;;;;;17.90;1.00;;;;;;4973921;28;19927;-59
2023/10/26 07:05:18;;;;;;;;;;;17.90;1.00;;;;;;4973631;28;20284;-58
2023/10/26 07:07:45;;;;;;;;;;;17.90;1.00;;;;;;4973986;28;19926;-58
2023/10/26 07:10:15;;;;;;;;;;;17.90;1.00;;;;;;4973757;28;20028;-59
2023/10/26 07:12:43;;;;;;;;;;;17.90;1.00;;;;;;4974096;28;20283;-59
2023/10/26 07:15:09;;;;;;;;;;;17.90;1.00;;;;;;4973651;28;19926;-59
2023/10/26 07:17:37;;;;;;;;;;;17.90;1.00;;;;;;4973683;28;19933;-59
2023/10/26 07:20:05;;;;;;;;;;;17.90;1.00;;;;;;4972767;28;20463;-58
2023/10/26 07:22:32;;;;;;;;;;;17.90;1.00;;;;;;4972345;28;19927;-59
2023/10/26 07:24:58;;;;;;;;;;;17.90;1.00;;;;;;4971972;28;19954;-59
2023/10/26 07:27:25;;;;;;;;;;;17.80;1.00;;;;;;4973097;28;19972;-59
2023/10/26 07:29:52;;;;;;;;;;;17.80;1.00;;;;;;4973203;28;19926;-59
2023/10/26 07:32:19;;;;;;;;;;;17.80;1.00;;;;;;4973193;28;19926;-59
2023/10/26 07:34:46;;;;;;;;;;;17.80;1.00;;;;;;4972965;28;20300;-59
2023/10/26 07:37:12;;;;;;;;;;;17.80;1.00;;;;;;4973369;28;19926;-58
2023/10/26 07:39:39;;;;;;;;;;;17.80;1.00;;;;;;4972871;28;19926;-59
2023/10/26 07:42:13;;;;;;;;;;;17.80;1.00;;;;;;4973344;28;19932;-58
2023/10/26 07:44:40;;;;;;;;;;;17.80;1.00;;;;;;4972917;28;19933;-60
2023/10/26 07:47:12;;;;;;;;;;;17.80;1.00;;;;;;4973229;28;20396;-60
2023/10/26 07:49:39;;;;;;;;;;;17.70;1.00;;;;;;4972834;28;19926;-60
2023/10/26 07:52:06;;;;;;;;;;;17.80;1.00;;;;;;4973044;28;19933;-60
2023/10/26 07:54:32;;;;;;;;;;;17.70;1.00;;;;;;4972813;28;19927;-60
2023/10/26 07:56:59;;;;;;;;;;;17.70;1.00;;;;;;4972985;28;20041;-60
2023/10/26 07:59:26;;;;;;;;;;;17.80;1.00;;;;;;4971240;28;19941;-60
2023/10/26 08:01:53;;;;;;;;;;;17.80;1.00;;;;;;4974920;28;20039;-60
2023/10/26 08:04:20;;;;;;;;;;;17.70;1.00;;;;;;4976378;28;19926;-60
2023/10/26 08:06:47;;;;;;;;;;;17.70;1.00;;;;;;4976508;28;19926;-59
2023/10/26 08:09:13;;;;;;;;;;;17.70;1.00;;;;;;4970127;28;20683;-60
2023/10/26 08:11:40;;;;;;;;;;;17.70;1.00;;;;;;4975573;28;20412;-60
2023/10/26 08:14:08;;;;;;;;;;;17.70;1.00;;;;;;4975684;28;19933;-60
2023/10/26 08:16:55;;;;;;;;;;;17.70;1.00;;;;;;4975833;28;19930;-60
2023/10/26 08:19:22;;;;;;;;;;;17.70;1.00;;;;;;4976599;28;20345;-60
2023/10/26 08:21:49;;;;;;;;;;;17.70;1.00;;;;;;4976079;28;19934;-60
2023/10/26 08:24:15;;;;;;;;;;;17.60;1.00;;;;;;4973716;28;19930;-59
2023/10/26 08:26:42;;;;;;;;;;;17.60;1.00;;;;;;4975826;28;20411;-60
2023/10/26 08:29:09;;;;;;;;;;;17.60;1.00;;;;;;4972405;28;19926;-58
2023/10/26 08:31:50;;;;;;;;;;;17.60;1.00;;;;;;4975110;28;20013;-59
2023/10/26 08:34:17;;;;;;;;;;;17.60;1.00;;;;;;4969270;28;19962;-61
2023/10/26 08:36:44;;;;;;;;;;;17.60;1.00;;;;;;4969697;28;20292;-60
2023/10/26 08:39:27;;;;;;;;;;;17.60;1.00;;;;;;4971220;28;20517;-61
2023/10/26 08:41:57;;;;;;;;;;;17.60;1.00;;;;;;4974624;28;20332;-60
2023/10/26 08:44:26;;;;;;;;;;;17.60;1.00;;;;;;4968170;28;19938;-59
2023/10/26 08:46:57;;;;;;;;;;;17.60;1.00;;;;;;4972525;28;20277;-59
2023/10/26 08:49:26;;;;;;;;;;;17.60;1.00;;;;;;4975086;28;19997;-59
2023/10/26 08:51:53;;;;;;;;;;;17.60;1.00;;;;;;4971985;28;19981;-59
2023/10/26 08:54:20;;;;;;;;;;;17.60;1.00;;;;;;4955909;28;19926;-60
2023/10/26 08:56:47;;;;;;;;;;;17.60;1.00;;;;;;4972284;28;19926;-59
2023/10/26 08:59:14;;;;;;;;;;;17.60;1.00;;;;;;4955526;28;20041;-60
2023/10/26 09:01:44;;;;;;;;;;;17.60;1.00;;;;;;4971237;28;19926;-60
2023/10/26 09:04:12;;;;;;;;;;;17.60;1.00;;;;;;4974285;28;20328;-60
2023/10/26 09:06:46;;;;;;;;;;;17.60;1.00;;;;;;4972512;28;20522;-60
2023/10/26 09:09:13;;;;;;;;;;;17.60;1.00;;;;;;4971760;28;20300;-59
2023/10/26 09:11:39;;;;;;;;;;;17.50;1.00;;;;;;4968263;28;20300;-59
2023/10/26 09:14:16;;;;;;;;;;;17.60;1.00;;;;;;4970485;28;20507;-60
2023/10/26 09:16:45;;;;;;;;;;;17.60;1.00;;;;;;4974758;28;20277;-60
2023/10/26 09:19:12;;;;;;;;;;;17.60;1.00;;;;;;4965900;28;19926;-59
2023/10/26 09:21:52;;;;;;;;;;;17.60;1.00;;;;;;4974280;28;19926;-59
2023/10/26 09:24:21;;;;;;;;;;;17.60;1.00;;;;;;4972569;28;19926;-59
2023/10/26 09:26:48;;;;;;;;;;;17.50;1.00;;;;;;4975092;28;20297;-60
2023/10/26 09:29:15;;;;;;;;;;;17.60;1.00;;;;;;4973428;28;20396;-60
2023/10/26 09:31:52;;;;;;;;;;;17.60;1.00;;;;;;4972396;28;20935;-59
2023/10/26 09:34:22;;;;;;;;;;;17.50;1.00;;;;;;4972475;28;19926;-60
2023/10/26 09:37:02;;;;;;;;;;;17.50;1.00;;;;;;4974417;28;19926;-60
2023/10/26 09:39:31;;;;;;;;;;;17.50;1.00;;;;;;4974482;28;19933;-60
2023/10/26 09:41:59;;;;;;;;;;;17.60;1.00;;;;;;4974390;28;19926;-60
2023/10/26 09:44:26;;;;;;;;;;;17.50;1.00;;;;;;4974194;28;20328;-60
2023/10/26 09:46:53;;;;;;;;;;;17.50;1.00;;;;;;4974516;28;19934;-60
2023/10/26 09:49:21;;;;;;;;;;;17.50;1.00;;;;;;4972845;28;20024;-60
2023/10/26 09:51:48;;;;;;;;;;;17.50;1.00;;;;;;4970973;28;19930;-60
2023/10/26 09:54:16;;;;;;;;;;;17.50;1.00;;;;;;4974188;28;19929;-59
2023/10/26 09:56:46;;;;;;;;;;;17.50;1.00;;;;;;4976063;28;19926;-60
2023/10/26 09:59:13;;;;;;;;;;;17.50;1.00;;;;;;4974472;28;20020;-60
2023/10/26 10:01:40;;;;;;;;;;;17.50;1.00;;;;;;4974543;28;19948;-60
2023/10/26 10:04:08;;;;;;;;;;;17.50;1.00;;;;;;4974099;28;20587;-59
2023/10/26 10:06:43;;;;;;;;;;;17.50;1.00;;;;;;4972898;28;19926;-60
2023/10/26 10:09:10;;;;;;;;;;;17.50;1.00;;;;;;4972957;28;20425;-59
2023/10/26 10:11:38;;;;;;;;;;;17.50;1.00;;;;;;4973985;28;20107;-59
2023/10/26 10:14:05;;;;;;;;;;;17.50;1.00;;;;;;4973543;28;19932;-60
2023/10/26 10:16:35;;;;;;;;;;;17.50;1.00;;;;;;4973762;28;19926;-59
2023/10/26 10:19:15;;;;;;;;;;;17.50;1.00;;;;;;4973769;28;19932;-59
2023/10/26 10:21:42;;;;;;;;;;;17.50;1.00;;;;;;4973759;28;20127;-59
2023/10/26 10:24:09;;;;;;;;;;;17.50;1.00;;;;;;4972300;28;19973;-59
2023/10/26 10:26:54;;;;;;;;;;;17.50;1.00;;;;;;4973746;28;19997;-58
2023/10/26 10:29:21;;;;;;;;;;;17.50;1.00;;;;;;4973485;28;19930;-57
2023/10/26 10:31:48;;;;;;;;;;;17.50;1.00;;;;;;4973508;28;19930;-58
2023/10/26 10:34:17;;;;;;;;;;;17.50;1.00;;;;;;4973259;28;19926;-59
2023/10/26 10:37:04;;;;;;;;;;;17.50;1.00;;;;;;4973368;28;19929;-58
2023/10/26 10:39:30;;;;;;;;;;;17.50;1.00;;;;;;4962103;28;20340;-57
2023/10/26 10:41:57;;;;;;;;;;;17.50;1.00;;;;;;4973463;28;19968;-59
2023/10/26 10:44:24;;;;;;;;;;;17.50;1.00;;;;;;4969540;28;19933;-60
2023/10/26 10:46:50;;;;;;;;;;;17.40;1.00;;;;;;4967181;28;19927;-58
2023/10/26 10:49:23;;;;;;;;;;;17.50;1.00;;;;;;4968145;28;20439;-59
2023/10/26 10:51:50;;;;;;;;;;;17.50;1.00;;;;;;4970675;28;19970;-58
2023/10/26 10:54:20;;;;;;;;;;;17.50;1.00;;;;;;4973128;28;19989;-59
2023/10/26 10:57:07;;;;;;;;;;;17.50;1.00;;;;;;4958518;28;19926;-59
2023/10/26 10:59:34;;;;;;;;;;;17.50;1.00;;;;;;4973163;28;19936;-60
2023/10/26 11:02:09;;;;;;;;;;;17.50;1.00;;;;;;4973662;28;19937;-59
2023/10/26 11:04:55;;;;;;;;;;;17.50;1.00;;;;;;4973197;28;19934;-60
2023/10/26 11:07:38;;;;;;;;;;;17.50;1.00;;;;;;4968712;28;19926;-60
2023/10/26 11:10:05;;;;;;;;;;;17.40;1.00;;;;;;4972720;28;19973;-59
2023/10/26 11:12:32;;;;;;;;;;;17.40;1.00;;;;;;4973085;28;19932;-59
2023/10/26 11:15:00;;;;;;;;;;;17.50;1.00;;;;;;4972643;28;20400;-58
2023/10/26 11:17:27;;;;;;;;;;;17.50;1.00;;;;;;4973080;28;19926;-60
2023/10/26 11:19:56;;;;;;;;;;;17.50;1.00;;;;;;4972820;28;19926;-58
2023/10/26 11:22:23;;;;;;;;;;;17.50;1.00;;;;;;4972907;28;20386;-59
2023/10/26 11:24:50;;;;;;;;;;;17.50;1.00;;;;;;4972590;28;20443;-59
2023/10/26 11:27:18;;;;;;;;;;;17.50;1.00;;;;;;4973067;28;20411;-58
2023/10/26 11:29:58;;;;;;;;;;;17.50;1.00;;;;;;4972778;28;19933;-59
2023/10/26 11:32:25;;;;;;;;;;;17.50;1.00;;;;;;4955734;28;20396;-60
2023/10/26 11:35:05;;;;;;;;;;;17.50;1.00;;;;;;4973626;28;19932;-58
2023/10/26 11:37:33;;;;;;;;;;;17.50;1.00;;;;;;4976766;28;19926;-58
2023/10/26 11:39:59;;;;;;;;;;;17.50;1.00;;;;;;4976721;28;19933;-59
2023/10/26 11:42:45;;;;;;;;;;;17.50;1.00;;;;;;4970901;28;19926;-60
2023/10/26 11:45:14;;;;;;;;;;;17.50;1.00;;;;;;4974615;28;19926;-59
2023/10/26 11:47:47;;;;;;;;;;;17.50;1.00;;;;;;4976548;28;20024;-59
2023/10/26 11:50:18;;;;;;;;;;;17.50;1.00;;;;;;4976630;28;19926;-60
2023/10/26 11:52:44;;;;;;;;;;;17.50;1.00;;;;;;4976412;28;19929;-57
2023/10/26 11:55:14;;;;;;;;;;;17.50;1.00;;;;;;4976303;28;20300;-60
2023/10/26 11:57:41;;;;;;;;;;;17.50;1.00;;;;;;4976405;28;19933;-58
2023/10/26 12:00:09;;;;;;;;;;;17.50;1.00;;;;;;4976499;28;19973;-60
2023/10/26 12:02:39;;;;;;;;;;;17.50;1.00;;;;;;4959053;28;19927;-57
2023/10/26 12:05:06;;;;;;;;;;;17.50;1.00;;;;;;4975983;28;19930;-58
2023/10/26 12:07:33;;;;;;;;;;;17.50;1.00;;;;;;4976418;28;19997;-60
2023/10/26 12:10:03;;;;;;;;;;;17.50;1.00;;;;;;4975936;28;20400;-59
2023/10/26 12:12:30;;;;;;;;;;;17.50;1.00;;;;;;4968411;28;20021;-59
2023/10/26 12:14:57;;;;;;;;;;;17.50;1.00;;;;;;4975921;28;20009;-59
2023/10/26 12:17:23;;;;;;;;;;;17.50;1.00;;;;;;4975906;28;19934;-60
2023/10/26 12:19:50;;;;;;;;;;;17.50;1.00;;;;;;4976154;28;20369;-59
2023/10/26 12:22:17;;;;;;;;;;;17.50;1.00;;;;;;4974390;28;20033;-59
2023/10/26 12:24:44;;;;;;;;;;;17.50;1.00;;;;;;4975839;28;19957;-60
2023/10/26 12:27:11;;;;;;;;;;;17.50;1.00;;;;;;4975717;28;19926;-60
2023/10/26 12:29:38;;;;;;;;;;;17.50;1.00;;;;;;4975807;28;20392;-59
2023/10/26 12:32:04;;;;;;;;;;;17.50;1.00;;;;;;4975714;28;20284;-58
2023/10/26 12:34:31;;;;;;;;;;;17.50;1.00;;;;;;4967763;28;20381;-58
2023/10/26 12:36:58;;;;;;;;;;;17.50;1.00;;;;;;4975825;28;20376;-58
2023/10/26 12:39:25;;;;;;;;;;;17.50;1.00;;;;;;4975350;28;20029;-58
2023/10/26 12:41:51;;;;;;;;;;;17.50;1.00;;;;;;4975524;28;19926;-58
2023/10/26 12:44:20;;;;;;;;;;;17.50;1.00;;;;;;4975154;28;19926;-57
2023/10/26 12:46:53;;;;;;;;;;;17.50;1.00;;;;;;4974890;28;19930;-59
2023/10/26 12:49:23;;;;;;;;;;;17.50;1.00;;;;;;4975030;28;20346;-60
2023/10/26 12:51:50;;;;;;;;;;;17.50;1.00;;;;;;4975485;28;19926;-58
2023/10/26 12:54:18;;;;;;;;;;;17.60;1.00;;;;;;4974868;28;20392;-54
2023/10/26 12:56:44;;;;;;;;;;;17.50;1.00;;;;;;4975288;28;19930;-60
2023/10/26 12:59:11;;;;;;;;;;;17.60;1.00;;;;;;4975108;28;20291;-57
2023/10/26 13:01:38;;;;;;;;;;;17.50;1.00;;;;;;4975147;28;19926;-60
2023/10/26 13:04:05;;;;;;;;;;;17.60;1.00;;;;;;4975211;28;19926;-60
2023/10/26 13:06:35;;;;;;;;;;;17.50;1.00;;;;;;4974318;28;19997;-61
2023/10/26 13:09:05;;;;;;;;;;;17.50;1.00;;;;;;4974024;28;20295;-59
2023/10/26 13:11:32;;;;;;;;;;;17.50;1.00;;;;;;4971453;28;19981;-57
2023/10/26 13:13:58;;;;;;;;;;;17.50;1.00;;;;;;4963281;28;19926;-58
2023/10/26 13:16:26;;;;;;;;;;;17.50;1.00;;;;;;4972850;28;20348;-58
2023/10/26 13:18:52;;;;;;;;;;;17.60;1.00;;;;;;4965819;28;19934;-59
2023/10/26 13:21:19;;;;;;;;;;;17.60;1.00;;;;;;4970176;28;20020;-60
2023/10/26 13:23:46;;;;;;;;;;;17.50;1.00;;;;;;4974524;28;19948;-59
2023/10/26 13:26:13;;;;;;;;;;;17.50;1.00;;;;;;4974676;28;19933;-58
2023/10/26 13:28:40;;;;;;;;;;;17.50;1.00;;;;;;4968482;28;19934;-60
2023/10/26 13:31:06;;;;;;;;;;;17.50;1.00;;;;;;4974547;28;19973;-58
2023/10/26 13:33:34;;;;;;;;;;;17.50;1.00;;;;;;4974249;28;19936;-59
2023/10/26 13:36:02;;;;;;;;;;;17.60;1.00;;;;;;4972427;28;19926;-57
2023/10/26 13:38:28;;;;;;;;;;;17.50;1.00;;;;;;4972892;28;19926;-59
2023/10/26 13:40:55;;;;;;;;;;;17.50;1.00;;;;;;4967328;28;20028;-60
2023/10/26 13:43:22;;;;;;;;;;;17.50;1.00;;;;;;4974082;28;19926;-59
2023/10/26 13:45:49;;;;;;;;;;;17.60;1.00;;;;;;4974305;28;20013;-60
2023/10/26 13:48:15;;;;;;;;;;;17.60;1.00;;;;;;4973918;28;20380;-60
2023/10/26 13:50:42;;;;;;;;;;;17.60;1.00;;;;;;4974213;28;19933;-60
2023/10/26 13:53:13;;;;;;;;;;;17.50;1.00;;;;;;4973776;28;20024;-60
2023/10/26 13:55:40;;;;;;;;;;;17.60;1.00;;;;;;4974223;28;19930;-60
2023/10/26 13:58:06;;;;;;;;;;;17.50;1.00;;;;;;4970111;28;19926;-59
2023/10/26 14:00:37;;;;;;;;;;;17.50;1.00;;;;;;4974116;28;19966;-60
2023/10/26 14:03:04;;;;;;;;;;;17.60;1.00;;;;;;4973809;28;19941;-60
2023/10/26 14:05:31;;;;;;;;;;;17.50;1.00;;;;;;4973831;28;19926;-58
2023/10/26 14:07:58;;;;;;;;;;;17.50;1.00;;;;;;4973972;28;19932;-60
2023/10/26 14:10:25;;;;;;;;;;;17.50;1.00;;;;;;4973699;28;19940;-59
2023/10/26 14:12:52;;;;;;;;;;;17.50;1.00;;;;;;4973883;28;20010;-60
2023/10/26 14:15:19;;;;;;;;;;;17.50;1.00;;;;;;4973445;28;19930;-57
2023/10/26 14:17:46;;;;;;;;;;;17.50;1.00;;;;;;4973660;28;19937;-56
2023/10/26 14:20:12;;;;;;;;;;;17.50;1.00;;;;;;4973513;28;19949;-59
2023/10/26 14:22:39;;;;;;;;;;;17.50;1.00;;;;;;4973260;28;19926;-60
2023/10/26 14:25:06;;;;;;;;;;;17.50;1.00;;;;;;4973291;28;20324;-58
2023/10/26 14:27:33;;;;;;;;;;;17.50;1.00;;;;;;4973514;28;20028;-59
2023/10/26 14:30:00;;;;;;;;;;;17.50;1.00;;;;;;4973325;28;20016;-59
2023/10/26 14:32:27;;;;;;;;;;;17.50;1.00;;;;;;4973299;28;19935;-59
2023/10/26 14:34:53;;;;;;;;;;;17.50;1.00;;;;;;4973197;28;20396;-57